createdAt,value
2022-10-12T00:01:02.751Z,100635.41
2022-10-12T00:03:30.633Z,100640.63
2022-10-12T00:06:20.999Z,100646.81
2022-10-12T00:08:51.350Z,100651.97
2022-10-12T00:11:25.975Z,100661.69
2022-10-12T00:13:54.872Z,100658.06
2022-10-12T00:16:24.751Z,100654.50
2022-10-12T00:18:55.286Z,100662.31
2022-10-12T00:21:25.432Z,100664.81
2022-10-12T00:23:56.066Z,100670.16
2022-10-12T00:26:24.903Z,100674.41
2022-10-12T00:29:01.501Z,100672.50
2022-10-12T00:31:30.530Z,100676.03
2022-10-12T00:34:02.206Z,100682.22
2022-10-12T00:36:34.180Z,100677.78
2022-10-12T00:39:05.718Z,100682.97
2022-10-12T00:41:41.179Z,100685.56
2022-10-12T00:44:36.439Z,100680.06
2022-10-12T00:47:09.425Z,100691.44
2022-10-12T00:49:37.642Z,100696.56
2022-10-12T00:52:13.667Z,100701.06
2022-10-12T00:54:47.561Z,100692.88
2022-10-12T00:57:17.682Z,100706.03
2022-10-12T00:59:59.373Z,100704.28
2022-10-12T01:02:30.293Z,100719.34
2022-10-12T01:04:59.078Z,100719.41
2022-10-12T01:07:27.341Z,100722.06
2022-10-12T01:09:55.317Z,100725.63
2022-10-12T01:12:25.076Z,100721.97
2022-10-12T01:14:53.705Z,100725.59
2022-10-12T01:17:46.264Z,100724.53
2022-10-12T01:20:37.128Z,100735.13
2022-10-12T01:23:17.110Z,100738.84
2022-10-12T01:26:06.633Z,100739.72
2022-10-12T01:28:59.124Z,100747.69
2022-10-12T01:31:44.957Z,100745.97
2022-10-12T01:34:40.149Z,100741.53
2022-10-12T01:37:56.751Z,100753.03
2022-10-12T01:40:36.591Z,100743.31
2022-10-12T01:43:05.103Z,100740.47
2022-10-12T01:45:33.024Z,100734.31
2022-10-12T01:48:02.113Z,100744.97
2022-10-12T01:50:48.872Z,100752.13
2022-10-12T01:53:41.869Z,100755.81
2022-10-12T01:56:23.232Z,100752.19
2022-10-12T01:59:38.132Z,100757.66
2022-10-12T02:02:44.749Z,100750.66
2022-10-12T02:05:35.430Z,100756.78
2022-10-12T02:08:31.613Z,100756.84
2022-10-12T02:11:08.273Z,100759.44
2022-10-12T02:14:08.558Z,100755.03
2022-10-12T02:17:09.389Z,100760.47
2022-10-12T02:19:43.364Z,100756.03
2022-10-12T02:22:13.537Z,100754.25
2022-10-12T02:24:46.699Z,100754.22
2022-10-12T02:27:16.559Z,100760.53
2022-10-12T02:29:47.301Z,100748.03
2022-10-12T02:32:31.267Z,100748.94
2022-10-12T02:35:16.497Z,100747.16
2022-10-12T02:37:54.753Z,100745.28
2022-10-12T02:40:30.652Z,100745.34
2022-10-12T02:43:10.907Z,100747.09
2022-10-12T02:45:43.104Z,100738.28
2022-10-12T02:48:16.733Z,100731.19
2022-10-12T02:50:46.933Z,100723.28
2022-10-12T02:53:16.206Z,100717.88
2022-10-12T02:55:54.413Z,100725.03
2022-10-12T02:58:22.964Z,100720.66
2022-10-12T03:00:51.048Z,100729.47
2022-10-12T03:03:19.076Z,100714.56
2022-10-12T03:05:47.334Z,100725.09
2022-10-12T03:08:15.617Z,100731.25
2022-10-12T03:10:43.537Z,100723.31
2022-10-12T03:13:11.576Z,100728.59
2022-10-12T03:15:39.539Z,100732.16
2022-10-12T03:18:07.498Z,100736.47
2022-10-12T03:20:35.421Z,100742.72
2022-10-12T03:23:03.779Z,100737.44
2022-10-12T03:25:31.925Z,100747.97
2022-10-12T03:28:00.254Z,100745.34
2022-10-12T03:30:28.223Z,100750.66
2022-10-12T03:32:56.141Z,100761.31
2022-10-12T03:35:24.092Z,100763.00
2022-10-12T03:37:52.066Z,100764.69
2022-10-12T03:40:19.954Z,100767.41
2022-10-12T03:42:47.884Z,100771.72
2022-10-12T03:45:15.873Z,100768.22
2022-10-12T03:47:43.803Z,100784.13
2022-10-12T03:50:11.841Z,100779.69
2022-10-12T03:52:39.897Z,100785.13
2022-10-12T03:55:08.276Z,100785.03
2022-10-12T03:57:36.478Z,100793.88
2022-10-12T04:00:05.623Z,100793.03
2022-10-12T04:02:40.198Z,100798.44
2022-10-12T04:05:09.323Z,100802.09
2022-10-12T04:07:37.573Z,100802.06
2022-10-12T04:10:07.349Z,100813.47
2022-10-12T04:12:35.186Z,100811.63
2022-10-12T04:15:03.303Z,100806.44
2022-10-12T04:17:31.221Z,100806.31
2022-10-12T04:19:59.189Z,100805.50
2022-10-12T04:22:27.501Z,100806.41
2022-10-12T04:24:55.625Z,100807.28
2022-10-12T04:27:23.814Z,100813.50
2022-10-12T04:29:51.793Z,100806.38
2022-10-12T04:32:19.812Z,100814.25
2022-10-12T04:34:47.746Z,100819.53
2022-10-12T04:37:15.999Z,100825.66
2022-10-12T04:39:43.929Z,100832.78
2022-10-12T04:42:11.880Z,100835.38
2022-10-12T04:44:39.737Z,100829.09
2022-10-12T04:47:07.758Z,100834.44
2022-10-12T04:49:35.767Z,100832.63
2022-10-12T04:52:03.842Z,100836.00
2022-10-12T04:54:32.974Z,100844.03
2022-10-12T04:57:01.046Z,100844.06
2022-10-12T04:59:29.081Z,100852.81
2022-10-12T05:01:57.218Z,100858.13
2022-10-12T05:04:25.213Z,100854.59
2022-10-12T05:06:53.509Z,100850.06
2022-10-12T05:09:21.582Z,100852.72
2022-10-12T05:11:49.546Z,100847.44
2022-10-12T05:14:17.623Z,100850.84
2022-10-12T05:16:45.828Z,100847.28
2022-10-12T05:19:13.963Z,100844.59
2022-10-12T05:21:42.548Z,100856.25
2022-10-12T05:24:11.364Z,100856.22
2022-10-12T05:26:39.360Z,100857.13
2022-10-12T05:29:07.446Z,100849.91
2022-10-12T05:31:35.387Z,100858.88
2022-10-12T05:34:03.743Z,100853.53
2022-10-12T05:36:31.765Z,100863.25
2022-10-12T05:38:59.737Z,100860.63
2022-10-12T05:41:27.850Z,100863.31
2022-10-12T05:43:56.078Z,100866.81
2022-10-12T05:46:24.179Z,100865.94
2022-10-12T05:48:52.243Z,100860.63
2022-10-12T05:51:20.709Z,100866.75
2022-10-12T05:53:48.720Z,100862.38
2022-10-12T05:56:16.738Z,100872.13
2022-10-12T05:58:44.736Z,100856.00
2022-10-12T06:01:14.081Z,100856.16
2022-10-12T06:03:42.065Z,100855.19
2022-10-12T06:06:10.239Z,100858.78
2022-10-12T06:08:38.226Z,100852.50
2022-10-12T06:11:06.372Z,100853.44
2022-10-12T06:13:34.537Z,100861.34
2022-10-12T06:16:02.443Z,100854.25
2022-10-12T06:18:30.413Z,100858.72
2022-10-12T06:23:46.602Z,100862.16
2022-10-12T06:26:14.832Z,100858.56
2022-10-12T06:28:43.709Z,100855.88
2022-10-12T06:31:11.807Z,100864.78
2022-10-12T06:33:39.714Z,100869.16
2022-10-12T06:36:08.607Z,100871.75
2022-10-12T06:38:36.995Z,100871.88
2022-10-12T06:41:05.126Z,100889.56
2022-10-12T06:43:33.140Z,100884.22
2022-10-12T06:46:02.236Z,100887.81
2022-10-12T06:48:30.377Z,100888.66
2022-10-12T06:50:58.480Z,100895.84
2022-10-12T06:53:29.005Z,100901.06
2022-10-12T06:55:57.163Z,100903.81
2022-10-12T06:58:25.341Z,100907.44
2022-10-12T07:00:53.846Z,100908.25
2022-10-12T07:03:22.182Z,100894.97
2022-10-12T07:05:50.271Z,100896.88
2022-10-12T07:08:18.286Z,100913.88
2022-10-12T07:10:46.592Z,100897.91
2022-10-12T07:13:14.503Z,100911.38
2022-10-12T07:15:42.446Z,100902.63
2022-10-12T07:18:10.440Z,100917.81
2022-10-12T07:20:40.586Z,100910.09
2022-10-12T07:23:08.723Z,100924.34
2022-10-12T07:25:36.693Z,100895.13
2022-10-12T07:28:06.378Z,100889.00
2022-10-12T07:30:36.890Z,100871.19
2022-10-12T07:33:04.840Z,100886.41
2022-10-12T07:35:32.821Z,100874.91
2022-10-12T07:38:01.318Z,100870.47
2022-10-12T07:40:30.009Z,100880.41
2022-10-12T07:43:15.167Z,100871.47
2022-10-12T07:45:44.606Z,100890.97
2022-10-12T07:48:12.850Z,100873.34
2022-10-12T07:50:40.796Z,100876.81
2022-10-12T07:53:08.829Z,100872.28
2022-10-12T07:55:36.754Z,100901.75
2022-10-12T07:58:05.206Z,100902.84
2022-10-12T08:00:33.434Z,100936.84
2022-10-12T08:03:01.540Z,100914.50
2022-10-12T08:05:29.669Z,100917.88
2022-10-12T08:07:57.824Z,100926.75
2022-10-12T08:10:26.259Z,100905.31
2022-10-12T08:12:54.377Z,100883.88
2022-10-12T08:15:22.468Z,100914.31
2022-10-12T08:17:50.687Z,100911.91
2022-10-12T08:20:18.813Z,100918.31
2022-10-12T08:22:46.987Z,100915.81
2022-10-12T08:25:15.303Z,100914.88
2022-10-12T08:27:43.345Z,100906.00
2022-10-12T08:30:12.301Z,100917.59
2022-10-12T08:32:40.333Z,100912.13
2022-10-12T08:35:08.436Z,100922.75
2022-10-12T08:37:37.048Z,100938.06
2022-10-12T08:40:06.005Z,100950.72
2022-10-12T08:43:18.515Z,100945.09
2022-10-12T08:45:52.997Z,100968.97
2022-10-12T08:48:31.458Z,100961.16
2022-10-12T08:51:14.321Z,100976.34
2022-10-12T08:53:55.144Z,100992.56
2022-10-12T08:56:23.742Z,100992.75
2022-10-12T08:58:53.632Z,101018.72
2022-10-12T09:01:37.120Z,100990.41
2022-10-12T09:04:51.110Z,101008.28
2022-10-12T09:07:46.130Z,101005.00
2022-10-12T09:10:44.023Z,101017.66
2022-10-12T09:13:51.976Z,101022.28
2022-10-12T09:16:26.393Z,101023.41
2022-10-12T09:19:00.103Z,100983.38
2022-10-12T09:21:31.181Z,101000.41
2022-10-12T09:24:10.915Z,101033.38
2022-10-12T09:26:45.393Z,101017.53
2022-10-12T09:29:26.617Z,100987.41
2022-10-12T09:32:40.967Z,100987.56
2022-10-12T09:35:14.320Z,100994.13
2022-10-12T09:37:53.214Z,100937.09
2022-10-12T09:40:29.008Z,101011.00
2022-10-12T09:43:01.227Z,100987.16
2022-10-12T09:45:33.727Z,100965.84
2022-10-12T09:48:19.181Z,100956.09
2022-10-12T09:50:52.535Z,100971.22
2022-10-12T09:53:22.462Z,100988.19
2022-10-12T09:56:24.951Z,101001.50
2022-10-12T09:59:21.174Z,100962.53
2022-10-12T10:02:20.099Z,100984.69
2022-10-12T10:04:55.165Z,100960.75
2022-10-12T10:07:33.598Z,100997.31
2022-10-12T10:10:17.351Z,100969.06
2022-10-12T10:12:56.477Z,100956.50
2022-10-12T10:15:33.036Z,100970.78
2022-10-12T10:18:05.082Z,100977.91
2022-10-12T10:20:59.680Z,100945.09
2022-10-12T10:23:52.849Z,100947.78
2022-10-12T10:26:24.275Z,100984.16
2022-10-12T10:29:36.969Z,100943.34
2022-10-12T10:32:30.312Z,100961.09
2022-10-12T10:35:16.399Z,100991.28
2022-10-12T10:37:55.861Z,100968.19
2022-10-12T10:40:30.153Z,101007.22
2022-10-12T10:43:27.980Z,100993.00
2022-10-12T10:46:02.805Z,100946.78
2022-10-12T10:48:42.296Z,100985.66
2022-10-12T10:51:10.489Z,100903.22
2022-10-12T10:53:50.923Z,100924.44
2022-10-12T10:56:27.032Z,100894.28
2022-10-12T10:59:16.628Z,100936.00
2022-10-12T11:02:02.224Z,100964.97
2022-10-12T11:04:39.562Z,100897.34
2022-10-12T11:07:55.521Z,100872.59
2022-10-12T11:10:42.279Z,100905.34
2022-10-12T11:13:38.083Z,100901.78
2022-10-12T11:16:39.606Z,100912.34
2022-10-12T11:19:59.125Z,100874.81
2022-10-12T11:22:46.281Z,100908.22
2022-10-12T11:26:02.105Z,100885.47
2022-10-12T11:28:33.149Z,100841.28
2022-10-12T11:31:03.477Z,100836.19
2022-10-12T11:33:40.560Z,100865.19
2022-10-12T11:36:21.333Z,100883.47
2022-10-12T11:39:05.831Z,100831.81
2022-10-12T11:42:16.857Z,100801.81
2022-10-12T11:44:45.891Z,100886.81
2022-10-12T11:47:26.137Z,100829.72
2022-10-12T11:50:35.866Z,100900.34
2022-10-12T11:53:18.417Z,100784.19
2022-10-12T11:56:11.030Z,100825.09
2022-10-12T11:58:59.934Z,100796.09
2022-10-12T12:01:58.541Z,100809.94
2022-10-12T12:04:42.087Z,100837.13
2022-10-12T12:07:38.734Z,100860.75
2022-10-12T12:10:36.296Z,100815.00
2022-10-12T12:13:22.835Z,100784.53
2022-10-12T12:15:53.805Z,100787.44
2022-10-12T12:18:33.536Z,100737.53
2022-10-12T12:21:08.805Z,100755.16
2022-10-12T12:23:56.937Z,100737.13
2022-10-12T12:26:34.500Z,100749.63
2022-10-12T12:29:27.066Z,100794.19
2022-10-12T12:32:01.652Z,100822.56
2022-10-12T12:34:29.894Z,100723.81
2022-10-12T12:36:58.641Z,100754.59
2022-10-12T12:39:36.156Z,100698.03
2022-10-12T12:42:08.222Z,100810.41
2022-10-12T12:44:41.316Z,100732.91
2022-10-12T12:47:39.841Z,100626.22
2022-10-12T12:50:05.755Z,100615.53
2022-10-12T12:52:40.114Z,100658.94
2022-10-12T12:55:25.772Z,100615.69
2022-10-12T12:58:27.445Z,100659.03
2022-10-12T13:01:25.887Z,100687.50
2022-10-12T13:04:30.329Z,100750.78
2022-10-12T13:07:35.969Z,100629.38
2022-10-12T13:10:27.182Z,100650.25
2022-10-12T13:13:28.011Z,100713.78
2022-10-12T13:17:09.441Z,100606.91
2022-10-12T13:19:16.681Z,100662.94
2022-10-12T13:21:50.740Z,100635.91
2022-10-12T13:24:37.746Z,100617.00
2022-10-12T13:27:33.055Z,100600.53
2022-10-12T13:30:11.590Z,100608.69
2022-10-12T13:32:54.299Z,100623.28
2022-10-12T13:35:48.862Z,100654.13
2022-10-12T13:38:23.722Z,100656.19
2022-10-12T13:41:05.144Z,100602.28
2022-10-12T13:43:53.029Z,100554.00
2022-10-12T13:46:48.010Z,100603.78
2022-10-12T13:49:29.162Z,100569.09
2022-10-12T13:52:01.104Z,100633.91
2022-10-12T13:54:46.399Z,100603.78
2022-10-12T13:57:32.147Z,100538.19
2022-10-12T14:00:20.006Z,100493.38
2022-10-12T14:03:06.487Z,100652.34
2022-10-12T14:05:44.315Z,100513.75
2022-10-12T14:08:21.942Z,100538.22
2022-10-12T14:10:50.093Z,100619.34
2022-10-12T14:13:33.570Z,100565.97
2022-10-12T14:16:04.955Z,100636.09
2022-10-12T14:18:40.568Z,100560.72
2022-10-12T14:21:26.949Z,100628.25
2022-10-12T14:24:01.155Z,100516.50
2022-10-12T14:27:01.688Z,100520.94
2022-10-12T14:29:47.043Z,100512.97
2022-10-12T14:32:15.376Z,100478.31
2022-10-12T14:34:49.480Z,100488.34
2022-10-12T14:37:20.157Z,100586.09
2022-10-12T14:39:50.974Z,100555.16
2022-10-12T14:42:34.614Z,100516.59
2022-10-12T14:45:20.420Z,100508.41
2022-10-12T14:47:49.154Z,100497.88
2022-10-12T14:50:21.116Z,100544.19
2022-10-12T14:52:52.919Z,100514.22
2022-10-12T14:55:28.210Z,100498.09
2022-10-12T14:57:56.292Z,100497.72
2022-10-12T15:00:35.870Z,100480.66
2022-10-12T15:03:04.914Z,100553.53
2022-10-12T15:05:34.459Z,100482.44
2022-10-12T15:08:07.645Z,100456.75
2022-10-12T15:10:37.269Z,100501.94
2022-10-12T15:13:05.261Z,100466.25
2022-10-12T15:15:44.380Z,100500.38
2022-10-12T15:18:12.474Z,100510.25
2022-10-12T15:20:43.262Z,100530.38
2022-10-12T15:23:15.503Z,100497.44
2022-10-12T15:25:55.586Z,100522.31
2022-10-12T15:28:23.899Z,100533.03
2022-10-12T15:31:15.964Z,100502.56
2022-10-12T15:33:43.835Z,100559.91
2022-10-12T15:36:11.975Z,100532.16
2022-10-12T15:38:40.145Z,100435.56
2022-10-12T15:41:18.199Z,100484.75
2022-10-12T15:43:46.211Z,100522.41
2022-10-12T15:46:14.187Z,100501.25
2022-10-12T15:48:44.192Z,100470.91
2022-10-12T15:51:23.399Z,100513.66
2022-10-12T15:53:53.546Z,100520.00
2022-10-12T15:56:22.510Z,100512.28
2022-10-12T15:58:50.751Z,100515.13
2022-10-12T16:01:20.617Z,100519.53
2022-10-12T16:03:50.533Z,100539.91
2022-10-12T16:06:18.590Z,100517.84
2022-10-12T16:08:46.864Z,100543.00
2022-10-12T16:11:17.930Z,100545.75
2022-10-12T16:13:53.886Z,100541.78
2022-10-12T16:16:24.713Z,100561.94
2022-10-12T16:18:54.176Z,100561.16
2022-10-12T16:21:22.564Z,100556.31
2022-10-12T16:23:51.063Z,100564.38
2022-10-12T16:26:19.636Z,100581.31
2022-10-12T16:28:48.086Z,100572.50
2022-10-12T16:31:18.018Z,100571.63
2022-10-12T16:33:46.639Z,100568.38
2022-10-12T16:36:16.750Z,100580.13
2022-10-12T16:38:48.511Z,100592.69
2022-10-12T16:41:18.885Z,100589.25
2022-10-12T16:43:47.568Z,100596.63
2022-10-12T16:46:16.958Z,100599.34
2022-10-12T16:48:44.974Z,100612.72
2022-10-12T16:51:14.695Z,100621.56
2022-10-12T16:53:43.128Z,100609.25
2022-10-12T16:56:12.032Z,100619.13
2022-10-12T16:58:40.903Z,100627.19
2022-10-12T17:01:11.834Z,100631.72
2022-10-12T17:03:40.926Z,100637.94
2022-10-12T17:06:09.911Z,100637.06
2022-10-12T17:08:39.642Z,100644.25
2022-10-12T17:11:17.044Z,100646.94
2022-10-12T17:13:48.945Z,100641.66
2022-10-12T17:16:37.268Z,100645.22
2022-10-12T17:19:05.516Z,100649.72
2022-10-12T17:21:37.051Z,100655.06
2022-10-12T17:24:06.555Z,100658.66
2022-10-12T17:26:40.106Z,100681.69
2022-10-12T17:29:14.054Z,100692.31
2022-10-12T17:31:43.392Z,100707.38
2022-10-12T17:34:28.808Z,100708.28
2022-10-12T17:37:00.441Z,100716.25
2022-10-12T17:39:32.327Z,100717.13
2022-10-12T17:42:00.820Z,100718.00
2022-10-12T17:44:29.173Z,100725.09
2022-10-12T17:46:58.887Z,100734.84
2022-10-12T17:49:28.278Z,100741.94
2022-10-12T17:51:56.475Z,100750.78
2022-10-12T17:54:27.090Z,100763.19
2022-10-12T17:56:56.247Z,100779.13
2022-10-12T17:59:25.329Z,100777.34
2022-10-12T18:01:54.550Z,100779.91
2022-10-12T18:04:22.794Z,100803.78
2022-10-12T18:06:50.964Z,100818.03
2022-10-12T18:09:18.973Z,100822.47
2022-10-12T18:11:47.217Z,100819.84
2022-10-12T18:14:15.712Z,100819.84
2022-10-12T18:16:43.741Z,100813.69
2022-10-12T18:19:12.001Z,100814.56
2022-10-12T18:21:40.512Z,100835.75
2022-10-12T18:24:16.766Z,100846.34
2022-10-12T18:26:47.295Z,100844.59
2022-10-12T18:29:18.543Z,100845.50
2022-10-12T18:31:47.113Z,100831.22
2022-10-12T18:34:15.724Z,100848.84
2022-10-12T18:36:44.041Z,100851.53
2022-10-12T18:39:12.475Z,100839.19
2022-10-12T18:41:40.468Z,100840.03
2022-10-12T18:44:11.104Z,100831.00
2022-10-12T18:46:39.170Z,100843.13
2022-10-12T18:49:09.427Z,100857.13
2022-10-12T18:51:46.112Z,100852.59
2022-10-12T18:54:16.950Z,100858.63
2022-10-12T18:56:45.481Z,100873.81
2022-10-12T18:59:17.598Z,100862.41
2022-10-12T19:01:47.149Z,100847.09
2022-10-12T19:04:15.352Z,100846.28
2022-10-12T19:06:44.087Z,100854.16
2022-10-12T19:09:15.114Z,100865.19
2022-10-12T19:11:43.482Z,100883.66
2022-10-12T19:14:14.945Z,100881.25
2022-10-12T19:16:44.482Z,100872.22
2022-10-12T19:19:20.740Z,100874.78
2022-10-12T19:21:51.455Z,100874.72
2022-10-12T19:24:21.114Z,100881.66
2022-10-12T19:26:49.264Z,100871.94
2022-10-12T19:29:17.276Z,100885.22
2022-10-12T19:31:48.765Z,100895.84
2022-10-12T19:34:20.111Z,100894.09
2022-10-12T19:36:48.622Z,100899.41
2022-10-12T19:39:22.159Z,100892.19
2022-10-12T19:41:52.000Z,100892.78
2022-10-12T19:44:20.429Z,100918.41
2022-10-12T19:46:49.440Z,100923.63
2022-10-12T19:49:18.730Z,100923.63
2022-10-12T19:51:47.761Z,100919.13
2022-10-12T19:54:16.485Z,100916.97
2022-10-12T19:56:44.679Z,100915.31
2022-10-12T19:59:13.229Z,100926.78
2022-10-12T20:01:42.498Z,100934.69
2022-10-12T20:04:12.179Z,100938.03
2022-10-12T20:06:40.683Z,100928.47
2022-10-12T20:09:10.022Z,100931.28
2022-10-12T20:11:38.620Z,100938.19
2022-10-12T20:14:07.516Z,100949.47
2022-10-12T20:16:36.434Z,100945.91
2022-10-12T20:19:07.247Z,100943.38
2022-10-12T20:21:36.831Z,100937.25
2022-10-12T20:24:08.134Z,100934.09
2022-10-12T20:26:36.284Z,100948.22
2022-10-12T20:29:04.255Z,100944.81
2022-10-12T20:31:32.277Z,100947.97
2022-10-12T20:34:00.180Z,100945.19
2022-10-12T20:36:30.940Z,100953.75
2022-10-12T20:38:59.651Z,100956.13
2022-10-12T20:41:28.380Z,100961.59
2022-10-12T20:43:58.461Z,100942.47
2022-10-12T20:46:28.360Z,100960.03
2022-10-12T20:49:04.027Z,100966.94
2022-10-12T20:51:39.518Z,100982.31
2022-10-12T20:54:09.172Z,100976.06
2022-10-12T20:56:41.609Z,100995.25
2022-10-12T20:59:10.897Z,101018.81
2022-10-12T21:01:38.943Z,101020.78
2022-10-12T21:04:07.020Z,101041.25
2022-10-12T21:06:35.273Z,101029.97
2022-10-12T21:09:03.407Z,101032.56
2022-10-12T21:11:32.158Z,101020.06
2022-10-12T21:14:00.139Z,101034.34
2022-10-12T21:16:28.134Z,101035.19
2022-10-12T21:18:56.778Z,101036.69
2022-10-12T21:21:25.045Z,101031.34
2022-10-12T21:23:59.240Z,101033.13
2022-10-12T21:26:30.745Z,101022.06
2022-10-12T21:29:00.130Z,101041.41
2022-10-12T21:31:32.201Z,101035.19
2022-10-12T21:34:07.385Z,101018.50
2022-10-12T21:36:36.765Z,101015.97
2022-10-12T21:39:11.889Z,101008.81
2022-10-12T21:41:40.850Z,100999.03
2022-10-12T21:44:10.435Z,101007.78
2022-10-12T21:46:38.758Z,101022.44
2022-10-12T21:49:08.636Z,101028.59
2022-10-12T21:51:37.601Z,101032.88
2022-10-12T21:54:07.287Z,101031.63
2022-10-12T21:56:37.422Z,101036.81
2022-10-12T21:59:06.593Z,101030.16
2022-10-12T22:01:37.842Z,101028.63
2022-10-12T22:04:12.304Z,101023.56
2022-10-12T22:06:40.761Z,101013.91
2022-10-12T22:09:16.572Z,100992.06
2022-10-12T22:11:44.956Z,100991.75
2022-10-12T22:14:17.730Z,100984.72
2022-10-12T22:16:46.321Z,100981.06
2022-10-12T22:19:19.094Z,100983.31
2022-10-12T22:21:49.504Z,100985.41
2022-10-12T22:24:19.339Z,100984.78
2022-10-12T22:26:47.517Z,100976.56
2022-10-12T22:29:15.603Z,100979.00
2022-10-12T22:31:44.689Z,100989.72
2022-10-12T22:34:12.888Z,101009.44
2022-10-12T22:36:41.065Z,101032.66
2022-10-12T22:39:09.381Z,101022.56
2022-10-12T22:41:37.341Z,101031.47
2022-10-12T22:44:05.410Z,101039.03
2022-10-12T22:46:33.782Z,101047.03
2022-10-12T22:49:03.514Z,101042.53
2022-10-12T22:51:36.144Z,101056.03
2022-10-12T22:54:04.452Z,101061.19
2022-10-12T22:56:33.213Z,101056.59
2022-10-12T22:59:06.788Z,101047.59
2022-10-12T23:01:36.192Z,101050.75
2022-10-12T23:04:04.706Z,101049.06
2022-10-12T23:06:33.194Z,101051.53
2022-10-12T23:09:01.379Z,101050.69
2022-10-12T23:11:30.254Z,101060.31
2022-10-12T23:13:59.312Z,101071.00
2022-10-12T23:16:31.134Z,101080.00
2022-10-12T23:19:02.876Z,101096.41
2022-10-12T23:21:33.478Z,101091.72
2022-10-12T23:24:05.038Z,101089.97
2022-10-12T23:26:34.287Z,101097.69
2022-10-12T23:29:02.587Z,101104.09
2022-10-12T23:31:31.517Z,101100.72
2022-10-12T23:34:05.071Z,101095.13
2022-10-12T23:36:34.997Z,101100.22
2022-10-12T23:39:05.317Z,101107.38
2022-10-12T23:41:33.442Z,101110.19
2022-10-12T23:44:01.390Z,101108.50
2022-10-12T23:46:29.890Z,101115.63
2022-10-12T23:48:59.140Z,101116.56
2022-10-12T23:51:27.773Z,101103.44
2022-10-12T23:53:55.906Z,101121.25
2022-10-12T23:56:23.906Z,101125.81
2022-10-12T23:58:53.215Z,101139.88
